Time;durP1;ratioP1;P1;durP2;ratioP2;P2;SDS_P1;SDS_P2;PMS_P1;PMS_P2;Temp;Humidity;BMP_temperature;BMP_pressure;BME280_temperature;BME280_humidity;BME280_pressure;Samples;Min_cycle;Max_cycle;Signal;HPM_P1;HPM_P2
2023/10/28 00:01:35;;;;;;;7.27;3.77;;;8.40;99.90;;;;;;4912148;28;20514;-69
2023/10/28 00:04:02;;;;;;;7.27;3.37;;;8.40;99.90;;;;;;4911699;28;20266;-68
2023/10/28 00:06:28;;;;;;;7.87;3.07;;;8.40;99.90;;;;;;4910695;28;20539;-68
2023/10/28 00:08:54;;;;;;;8.23;3.37;;;8.40;99.90;;;;;;4911962;28;20234;-69
2023/10/28 00:11:19;;;;;;;9.30;4.00;;;8.50;99.90;;;;;;4911940;28;20219;-69
2023/10/28 00:13:48;;;;;;;15.87;4.20;;;8.40;99.90;;;;;;4944637;28;20302;-68
2023/10/28 00:16:14;;;;;;;8.40;3.33;;;8.50;99.90;;;;;;4912030;28;20681;-68
2023/10/28 00:18:39;;;;;;;9.57;3.70;;;8.50;99.90;;;;;;4904011;28;20200;-68
2023/10/28 00:21:07;;;;;;;5.50;3.33;;;8.60;99.90;;;;;;4905638;28;20272;-68
2023/10/28 00:23:33;;;;;;;7.67;3.63;;;8.60;99.90;;;;;;4902263;28;20204;-68
2023/10/28 00:26:04;;;;;;;7.77;2.97;;;8.60;99.90;;;;;;4912247;28;20615;-68
2023/10/28 00:28:35;;;;;;;8.97;3.40;;;8.60;99.90;;;;;;4911742;28;20570;-68
2023/10/28 00:31:02;;;;;;;10.23;3.53;;;8.70;99.90;;;;;;4912001;28;20176;-68
2023/10/28 00:33:28;;;;;;;9.93;3.23;;;8.70;99.90;;;;;;4911139;28;20422;-67
2023/10/28 00:35:54;;;;;;;7.60;2.73;;;8.70;99.90;;;;;;4911616;28;20259;-69
2023/10/28 00:38:20;;;;;;;5.10;2.93;;;8.80;99.90;;;;;;4911256;28;20302;-69
2023/10/28 00:40:47;;;;;;;7.47;2.80;;;8.80;99.90;;;;;;4911838;28;20184;-69
2023/10/28 00:43:13;;;;;;;6.87;2.80;;;8.80;99.90;;;;;;4911165;28;20419;-68
2023/10/28 00:45:40;;;;;;;6.77;3.37;;;8.80;99.90;;;;;;4911759;28;20665;-68
2023/10/28 00:48:06;;;;;;;7.67;3.17;;;8.80;99.90;;;;;;4911507;28;20298;-67
2023/10/28 00:50:32;;;;;;;10.10;2.97;;;8.90;99.90;;;;;;4911620;28;20187;-68
2023/10/28 00:52:59;;;;;;;8.70;3.30;;;8.90;99.90;;;;;;4911376;28;20673;-68
2023/10/28 00:55:27;;;;;;;7.80;2.67;;;8.90;99.90;;;;;;4910996;28;20669;-68
2023/10/28 00:57:54;;;;;;;8.53;3.23;;;8.90;99.90;;;;;;4911500;28;20261;-67
2023/10/28 01:00:20;;;;;;;7.60;2.90;;;9.00;99.90;;;;;;4911378;28;20180;-68
2023/10/28 01:02:46;;;;;;;12.43;3.10;;;8.90;99.90;;;;;;4911365;28;20180;-67
2023/10/28 01:05:13;;;;;;;11.60;3.17;;;9.00;99.90;;;;;;4910986;28;20187;-68
2023/10/28 01:07:44;;;;;;;5.97;2.97;;;9.00;99.90;;;;;;4911155;28;20180;-68
2023/10/28 01:10:10;;;;;;;7.87;3.20;;;9.00;99.90;;;;;;4911694;28;20306;-68
2023/10/28 01:12:37;;;;;;;5.23;2.77;;;9.00;99.90;;;;;;4917432;28;20270;-67
2023/10/28 01:15:03;;;;;;;11.23;2.90;;;9.00;99.90;;;;;;4916774;28;20191;-68
2023/10/28 01:17:29;;;;;;;8.63;3.07;;;9.00;99.90;;;;;;4917296;28;20557;-68
2023/10/28 01:19:56;;;;;;;7.83;3.40;;;9.00;99.90;;;;;;4917571;28;20196;-67
2023/10/28 01:22:26;;;;;;;8.63;3.20;;;9.10;99.90;;;;;;4917607;28;20180;-68
2023/10/28 01:24:52;;;;;;;9.17;2.90;;;9.10;99.90;;;;;;4912728;28;20203;-68
2023/10/28 01:27:19;;;;;;;13.87;3.27;;;9.10;99.90;;;;;;4914298;28;20186;-68
2023/10/28 01:29:46;;;;;;;10.33;3.10;;;9.10;99.90;;;;;;4917403;28;20218;-69
2023/10/28 01:32:12;;;;;;;12.33;3.70;;;9.10;99.90;;;;;;4917363;28;20242;-68
2023/10/28 01:35:04;;;;;;;7.30;3.13;;;9.20;99.90;;;;;;4916701;28;20191;-68
2023/10/28 01:37:30;;;;;;;8.37;3.00;;;9.20;99.90;;;;;;4953719;28;20314;-68
2023/10/28 01:39:56;;;;;;;10.07;3.63;;;9.20;99.90;;;;;;4917213;28;20291;-68
2023/10/28 01:42:22;;;;;;;7.27;3.17;;;9.30;99.90;;;;;;4917057;28;20214;-68
2023/10/28 01:44:49;;;;;;;8.97;3.00;;;9.30;99.90;;;;;;4916734;28;20176;-68
2023/10/28 01:47:15;;;;;;;6.37;2.97;;;9.30;99.90;;;;;;4908602;28;20194;-68
2023/10/28 01:49:42;;;;;;;10.33;3.00;;;9.30;99.90;;;;;;4916589;28;20294;-68
2023/10/28 01:52:11;;;;;;;7.43;3.03;;;9.30;99.90;;;;;;4917133;28;20612;-67
2023/10/28 01:54:36;;;;;;;8.47;3.23;;;9.40;99.90;;;;;;4907211;28;20278;-67
2023/10/28 01:57:06;;;;;;;7.07;2.90;;;9.30;99.90;;;;;;4917084;28;20759;-67
2023/10/28 01:59:36;;;;;;;6.13;3.00;;;9.30;99.90;;;;;;4909214;28;20265;-68
2023/10/28 02:02:03;;;;;;;9.67;3.00;;;9.30;99.90;;;;;;4911119;28;20223;-68
2023/10/28 02:04:32;;;;;;;6.90;3.20;;;9.40;99.90;;;;;;4912896;28;20176;-67
2023/10/28 02:06:58;;;;;;;7.00;2.70;;;9.40;99.90;;;;;;4911181;28;20211;-68
2023/10/28 02:09:25;;;;;;;7.63;2.87;;;9.40;99.90;;;;;;4908758;28;20199;-69
2023/10/28 02:11:52;;;;;;;8.43;2.93;;;9.40;99.90;;;;;;4917099;28;20194;-68
2023/10/28 02:14:18;;;;;;;8.77;3.13;;;9.30;99.90;;;;;;4916221;28;20192;-68
2023/10/28 02:16:44;;;;;;;8.03;2.50;;;9.30;99.90;;;;;;4949219;28;20206;-69
2023/10/28 02:19:10;;;;;;;8.77;3.27;;;9.30;99.90;;;;;;4916738;28;20600;-68
2023/10/28 02:21:35;;;;;;;6.87;3.37;;;9.30;99.90;;;;;;4908394;28;20187;-68
2023/10/28 02:24:03;;;;;;;7.73;3.03;;;9.30;99.90;;;;;;4912250;28;20530;-68
2023/10/28 02:26:29;;;;;;;5.60;2.97;;;9.40;99.90;;;;;;4905904;28;20246;-68
2023/10/28 02:28:55;;;;;;;9.23;2.67;;;9.30;99.90;;;;;;4913783;28;20254;-68
2023/10/28 02:31:21;;;;;;;11.60;2.87;;;9.30;99.90;;;;;;4913549;28;20211;-69
2023/10/28 02:33:46;;;;;;;7.87;3.10;;;9.40;99.90;;;;;;4913035;28;20208;-68
2023/10/28 02:36:12;;;;;;;10.90;3.10;;;9.40;99.90;;;;;;4913535;28;20195;-68
2023/10/28 02:38:38;;;;;;;6.50;3.13;;;9.40;99.90;;;;;;4913201;28;20215;-68
2023/10/28 02:41:07;;;;;;;10.00;2.77;;;9.40;99.90;;;;;;4913541;28;20630;-68
2023/10/28 02:43:35;;;;;;;7.73;3.23;;;9.40;99.90;;;;;;4912624;28;20190;-69
2023/10/28 02:46:01;;;;;;;6.93;3.03;;;9.50;99.90;;;;;;4913343;28;20184;-69
2023/10/28 02:48:27;;;;;;;7.80;3.23;;;9.40;99.90;;;;;;4905367;28;20219;-68
2023/10/28 02:50:53;;;;;;;9.73;3.50;;;9.40;99.90;;;;;;4913227;28;20176;-68
2023/10/28 02:53:19;;;;;;;9.13;3.40;;;9.40;99.90;;;;;;4912513;28;20199;-69
2023/10/28 02:55:44;;;;;;;5.97;3.00;;;9.40;99.90;;;;;;4913208;28;20651;-68
2023/10/28 02:58:10;;;;;;;11.13;3.67;;;9.40;99.90;;;;;;4913012;28;20212;-67
2023/10/28 03:00:36;;;;;;;6.60;3.80;;;9.40;99.90;;;;;;4913051;28;20246;-68
2023/10/28 03:03:03;;;;;;;9.77;3.63;;;9.50;99.90;;;;;;4917811;28;20196;-68
2023/10/28 03:05:29;;;;;;;9.20;3.80;;;9.50;99.90;;;;;;4912511;28;20187;-68
2023/10/28 03:07:55;;;;;;;6.17;3.30;;;9.50;99.90;;;;;;4946064;28;20192;-69
2023/10/28 03:10:21;;;;;;;10.27;3.33;;;9.50;99.90;;;;;;4913082;28;20657;-69
2023/10/28 03:12:47;;;;;;;4.30;2.80;;;9.60;99.90;;;;;;4909518;28;20283;-68
2023/10/28 03:15:12;;;;;;;7.57;3.50;;;9.60;99.90;;;;;;4908369;28;20184;-69
2023/10/28 03:17:38;;;;;;;10.87;3.10;;;9.60;99.90;;;;;;4945799;28;20220;-67
2023/10/28 03:20:11;;;;;;;11.33;3.63;;;9.60;99.90;;;;;;4912772;28;20211;-67
2023/10/28 03:22:38;;;;;;;9.90;2.80;;;9.60;99.90;;;;;;4912985;28;20202;-69
2023/10/28 03:25:04;;;;;;;6.97;3.30;;;9.60;99.90;;;;;;4904296;28;20192;-67
2023/10/28 03:27:30;;;;;;;7.50;3.10;;;9.50;99.90;;;;;;4912654;28;20203;-68
2023/10/28 03:29:56;;;;;;;6.60;3.03;;;9.60;99.90;;;;;;4912681;28;20769;-68
2023/10/28 03:32:22;;;;;;;8.10;3.37;;;9.60;99.90;;;;;;4912707;28;20271;-68
2023/10/28 03:34:47;;;;;;;4.07;2.73;;;9.60;99.90;;;;;;4911812;28;20250;-67
2023/10/28 03:37:13;;;;;;;7.73;3.33;;;9.60;99.90;;;;;;4912681;28;20243;-67
2023/10/28 03:39:39;;;;;;;6.77;3.23;;;9.70;99.90;;;;;;4912679;28;20306;-67
2023/10/28 03:42:07;;;;;;;6.40;3.23;;;9.70;99.90;;;;;;4912621;28;20188;-66
2023/10/28 03:44:33;;;;;;;6.13;3.50;;;9.70;99.90;;;;;;4911912;28;20195;-68
2023/10/28 03:46:58;;;;;;;7.07;3.33;;;9.70;99.90;;;;;;4912640;28;20188;-68
2023/10/28 03:49:24;;;;;;;9.60;3.87;;;9.60;99.90;;;;;;4908556;28;20232;-68
2023/10/28 03:51:49;;;;;;;8.27;3.30;;;9.60;99.90;;;;;;4912558;28;20259;-68
2023/10/28 03:54:15;;;;;;;7.23;3.47;;;9.70;99.90;;;;;;4911780;28;20188;-68
2023/10/28 03:56:40;;;;;;;7.77;3.33;;;9.70;99.90;;;;;;4912306;28;20265;-67
2023/10/28 03:59:06;;;;;;;6.17;2.90;;;9.70;99.90;;;;;;4912348;28;20245;-67
2023/10/28 04:01:31;;;;;;;4.97;2.73;;;9.70;99.90;;;;;;4912326;28;20203;-68
2023/10/28 04:03:57;;;;;;;4.60;2.70;;;9.70;99.90;;;;;;4911581;28;20184;-68
2023/10/28 04:06:23;;;;;;;7.80;2.90;;;9.70;99.90;;;;;;4912329;28;20720;-68
2023/10/28 04:08:49;;;;;;;3.33;1.90;;;9.60;99.90;;;;;;4912084;28;20602;-68
2023/10/28 04:11:14;;;;;;;5.17;1.57;;;9.60;99.90;;;;;;4912185;28;20263;-68
2023/10/28 04:13:40;;;;;;;2.43;1.00;;;9.60;99.90;;;;;;4911571;28;20242;-68
2023/10/28 04:16:06;;;;;;;2.43;0.60;;;9.60;99.90;;;;;;4912250;28;20184;-66
2023/10/28 04:18:31;;;;;;;2.10;0.50;;;9.60;99.90;;;;;;4911984;28;20219;-67
2023/10/28 04:20:57;;;;;;;0.83;0.70;;;9.60;99.90;;;;;;4912329;28;20191;-67
2023/10/28 04:23:22;;;;;;;1.33;0.60;;;9.60;99.90;;;;;;4911152;28;20665;-68
2023/10/28 04:25:48;;;;;;;3.93;0.70;;;9.60;99.90;;;;;;4911905;28;20176;-67
2023/10/28 04:28:14;;;;;;;1.27;0.40;;;9.50;99.90;;;;;;4911963;28;20480;-67
2023/10/28 04:30:39;;;;;;;1.63;0.50;;;9.50;99.90;;;;;;4911823;28;20541;-67
2023/10/28 04:33:05;;;;;;;2.17;0.67;;;9.50;99.90;;;;;;4911599;28;20196;-66
2023/10/28 04:35:31;;;;;;;3.57;0.70;;;9.40;99.90;;;;;;4911828;28;20192;-67
2023/10/28 04:37:56;;;;;;;0.90;0.60;;;9.40;99.90;;;;;;4911701;28;20239;-67
2023/10/28 04:40:22;;;;;;;1.07;0.50;;;9.50;99.90;;;;;;4911960;28;20220;-67
2023/10/28 04:42:48;;;;;;;2.33;0.50;;;9.50;99.90;;;;;;4912107;28;20187;-68
2023/10/28 04:45:13;;;;;;;1.90;0.53;;;9.50;99.90;;;;;;4910450;28;20203;-68
2023/10/28 04:47:39;;;;;;;2.23;0.60;;;9.30;99.90;;;;;;4903552;28;20255;-67
2023/10/28 04:50:05;;;;;;;3.13;0.50;;;9.30;99.90;;;;;;4911516;28;20594;-68
2023/10/28 04:52:31;;;;;;;2.83;0.60;;;9.30;99.90;;;;;;4911117;28;20716;-68
2023/10/28 04:54:58;;;;;;;0.60;0.50;;;9.20;99.90;;;;;;4906075;28;20185;-68
2023/10/28 04:57:24;;;;;;;3.60;0.60;;;9.10;99.90;;;;;;4908754;28;20213;-68
2023/10/28 04:59:49;;;;;;;4.43;0.77;;;9.10;99.90;;;;;;4911424;28;20684;-67
2023/10/28 05:02:15;;;;;;;3.40;0.50;;;9.00;99.90;;;;;;4911338;28;20262;-67
2023/10/28 05:04:41;;;;;;;1.13;0.50;;;8.90;99.90;;;;;;4910691;28;20237;-67
2023/10/28 05:07:07;;;;;;;1.17;0.60;;;8.80;99.90;;;;;;4911509;28;20188;-66
2023/10/28 05:09:32;;;;;;;9.10;3.17;;;8.70;99.90;;;;;;4911301;28;20762;-67
2023/10/28 05:12:00;;;;;;;3.47;1.13;;;8.60;99.90;;;;;;4911341;28;20188;-68
2023/10/28 05:14:25;;;;;;;1.20;0.83;;;8.60;99.90;;;;;;4943490;28;20180;-68
2023/10/28 05:16:55;;;;;;;1.77;0.93;;;8.60;99.90;;;;;;4911135;28;20215;-67
2023/10/28 05:19:22;;;;;;;1.50;0.77;;;8.60;99.90;;;;;;4911298;28;20651;-68
2023/10/28 05:21:48;;;;;;;3.80;1.23;;;8.50;99.90;;;;;;4903446;28;20230;-67
2023/10/28 05:24:14;;;;;;;4.03;1.20;;;8.60;99.90;;;;;;4902571;28;20184;-67
2023/10/28 05:26:40;;;;;;;5.93;1.23;;;8.60;99.90;;;;;;4911057;28;20242;-67
2023/10/28 05:29:06;;;;;;;6.33;1.43;;;8.60;99.90;;;;;;4910929;28;20211;-66
2023/10/28 05:31:32;;;;;;;20.53;7.57;;;8.70;99.90;;;;;;4901733;28;20199;-67
2023/10/28 05:33:57;;;;;;;11.80;3.93;;;8.60;99.90;;;;;;4902626;28;20176;-67
2023/10/28 05:36:23;;;;;;;11.37;5.30;;;8.60;99.90;;;;;;4910777;28;20192;-68
2023/10/28 05:38:48;;;;;;;8.80;3.73;;;8.70;99.90;;;;;;4910935;28;20732;-67
2023/10/28 05:41:14;;;;;;;3.90;1.07;;;8.70;99.90;;;;;;4911067;28;20214;-67
2023/10/28 05:43:40;;;;;;;3.87;1.27;;;8.80;99.90;;;;;;4910222;28;20192;-67
2023/10/28 05:46:05;;;;;;;1.83;1.00;;;8.80;99.90;;;;;;4910823;28;20227;-66
2023/10/28 05:48:32;;;;;;;2.60;1.00;;;8.80;99.90;;;;;;4910541;28;20258;-66
2023/10/28 05:50:58;;;;;;;3.33;1.73;;;8.80;99.90;;;;;;4910979;28;20211;-68
2023/10/28 05:53:23;;;;;;;3.57;1.60;;;8.90;99.90;;;;;;4910165;28;20616;-67
2023/10/28 05:55:49;;;;;;;6.97;2.47;;;8.90;99.90;;;;;;4910931;28;20552;-67
2023/10/28 05:58:15;;;;;;;6.93;1.83;;;8.80;99.90;;;;;;4912115;28;20224;-67
2023/10/28 06:00:44;;;;;;;13.97;4.83;;;8.90;99.90;;;;;;4911224;28;20195;-68
2023/10/28 06:03:10;;;;;;;8.77;2.60;;;8.90;99.90;;;;;;4908984;28;20542;-67
2023/10/28 06:05:36;;;;;;;7.47;3.57;;;9.00;99.90;;;;;;4913878;28;20195;-68
2023/10/28 06:08:02;;;;;;;7.50;3.10;;;9.00;99.90;;;;;;4947079;28;20451;-67
2023/10/28 06:10:27;;;;;;;6.77;3.10;;;9.00;99.90;;;;;;4913679;28;20195;-67
2023/10/28 06:12:53;;;;;;;8.90;2.70;;;9.10;99.90;;;;;;4913667;28;20202;-68
2023/10/28 06:15:18;;;;;;;5.03;2.90;;;9.10;99.90;;;;;;4913092;28;20212;-68
2023/10/28 06:17:45;;;;;;;5.93;2.77;;;9.10;99.90;;;;;;4913636;28;20484;-67
2023/10/28 06:20:11;;;;;;;7.10;2.60;;;9.10;99.90;;;;;;4913775;28;20185;-68
2023/10/28 06:22:37;;;;;;;8.13;3.17;;;9.10;99.90;;;;;;4913659;28;20246;-68
2023/10/28 06:25:04;;;;;;;5.20;2.50;;;9.20;99.90;;;;;;4912896;28;20242;-67
2023/10/28 06:27:33;;;;;;;8.00;2.10;;;9.20;99.90;;;;;;4913426;28;20186;-67
2023/10/28 06:29:59;;;;;;;3.77;1.87;;;9.10;99.90;;;;;;4912855;28;20277;-67
2023/10/28 06:32:27;;;;;;;3.30;1.20;;;9.20;99.90;;;;;;4912826;28;20179;-68
2023/10/28 06:34:54;;;;;;;4.53;1.50;;;9.20;99.90;;;;;;4904762;28;20684;-67
2023/10/28 06:37:20;;;;;;;4.03;1.70;;;9.20;99.90;;;;;;4912751;28;20204;-68
2023/10/28 06:39:47;;;;;;;4.20;1.73;;;9.30;99.90;;;;;;4905102;28;20203;-67
2023/10/28 06:42:13;;;;;;;6.97;1.30;;;9.30;99.90;;;;;;4911569;28;20187;-67
2023/10/28 06:44:38;;;;;;;3.93;1.20;;;9.30;99.90;;;;;;4909938;28;20188;-68
2023/10/28 06:47:04;;;;;;;3.50;1.50;;;9.30;99.90;;;;;;4907576;28;20534;-68
2023/10/28 06:49:31;;;;;;;10.73;3.83;;;9.40;99.90;;;;;;4913063;28;20310;-68
2023/10/28 06:51:57;;;;;;;5.90;1.53;;;9.50;99.90;;;;;;4912858;28;20176;-68
2023/10/28 06:54:23;;;;;;;2.77;1.50;;;9.60;99.90;;;;;;4911973;28;20195;-69
2023/10/28 06:56:49;;;;;;;5.73;1.97;;;9.70;99.90;;;;;;4912714;28;20291;-68
2023/10/28 06:59:14;;;;;;;3.93;2.00;;;9.70;99.90;;;;;;4912563;28;20211;-68
2023/10/28 07:01:40;;;;;;;10.23;2.60;;;9.80;99.90;;;;;;4912493;28;20226;-68
2023/10/28 07:04:05;;;;;;;9.70;2.83;;;9.90;99.90;;;;;;4911904;28;20230;-68
2023/10/28 07:06:31;;;;;;;7.37;3.30;;;9.90;99.90;;;;;;4904783;28;20196;-68
2023/10/28 07:08:57;;;;;;;6.33;3.63;;;9.90;99.90;;;;;;4911948;28;20294;-69
2023/10/28 07:11:23;;;;;;;5.20;3.00;;;10.00;99.90;;;;;;4904620;28;20185;-68
2023/10/28 07:13:49;;;;;;;8.07;4.17;;;10.10;99.90;;;;;;4912148;28;20644;-68
2023/10/28 07:16:17;;;;;;;3.73;2.00;;;10.20;99.90;;;;;;4912401;28;20199;-68
2023/10/28 07:18:43;;;;;;;6.40;2.10;;;10.20;99.90;;;;;;4912150;28;20295;-68
2023/10/28 07:21:09;;;;;;;3.80;1.70;;;10.30;99.90;;;;;;4912320;28;20664;-69
2023/10/28 07:23:35;;;;;;;12.97;5.00;;;10.40;99.90;;;;;;4911345;28;20192;-68
2023/10/28 07:26:02;;;;;;;19.60;7.03;;;10.40;99.90;;;;;;4912196;28;20226;-68
2023/10/28 07:28:34;;;;;;;12.00;4.33;;;10.40;99.90;;;;;;4904212;28;20620;-67
2023/10/28 07:31:01;;;;;;;4.00;2.30;;;10.40;99.90;;;;;;4912376;28;20180;-69
2023/10/28 07:33:27;;;;;;;8.57;3.20;;;10.40;99.90;;;;;;4911485;28;20184;-67
2023/10/28 07:35:52;;;;;;;10.03;3.33;;;10.40;99.90;;;;;;4912097;28;20211;-69
2023/10/28 07:38:19;;;;;;;6.67;2.70;;;10.30;99.90;;;;;;4911889;28;20207;-68
2023/10/28 07:40:46;;;;;;;5.17;2.50;;;10.20;99.90;;;;;;4911616;28;20577;-68
2023/10/28 07:43:13;;;;;;;4.30;1.50;;;10.20;99.90;;;;;;4903424;28;20183;-70
2023/10/28 07:45:42;;;;;;;8.43;1.70;;;10.30;99.90;;;;;;4910687;28;20183;-69
2023/10/28 07:48:11;;;;;;;4.90;1.67;;;10.30;99.90;;;;;;4911621;28;20280;-68
2023/10/28 07:50:37;;;;;;;4.23;1.80;;;10.30;99.90;;;;;;4910243;28;20267;-72
2023/10/28 07:53:06;;;;;;;8.63;1.90;;;10.40;99.90;;;;;;4906015;28;20192;-68
2023/10/28 07:55:32;;;;;;;9.50;2.10;;;10.30;99.90;;;;;;4911624;28;20688;-69
2023/10/28 07:57:57;;;;;;;5.97;1.60;;;10.40;99.90;;;;;;4912006;28;20208;-69
2023/10/28 08:00:23;;;;;;;10.60;1.97;;;10.50;99.90;;;;;;4911409;28;20187;-68
2023/10/28 08:02:51;;;;;;;8.20;2.30;;;10.50;99.90;;;;;;4911639;28;20224;-68
2023/10/28 08:05:16;;;;;;;4.53;1.60;;;10.80;99.90;;;;;;4911221;28;20176;-69
2023/10/28 08:07:42;;;;;;;7.30;1.40;;;11.00;99.90;;;;;;4911294;28;20262;-69
2023/10/28 08:10:08;;;;;;;5.27;1.50;;;11.40;99.90;;;;;;4904180;28;20208;-69
2023/10/28 08:12:35;;;;;;;4.73;1.80;;;11.80;99.90;;;;;;4909745;28;20234;-69
2023/10/28 08:15:02;;;;;;;7.27;1.70;;;12.10;99.90;;;;;;4905703;28;20205;-68
2023/10/28 08:17:30;;;;;;;5.97;1.53;;;12.50;99.90;;;;;;4908219;28;20196;-68
2023/10/28 08:19:56;;;;;;;8.63;2.83;;;12.60;99.90;;;;;;4904173;28;20200;-68
2023/10/28 08:22:22;;;;;;;5.20;1.60;;;12.70;99.90;;;;;;4910912;28;20692;-67
2023/10/28 08:24:48;;;;;;;3.07;1.37;;;12.70;99.90;;;;;;4924550;28;20264;-67
2023/10/28 08:27:14;;;;;;;19.97;8.10;;;12.80;99.90;;;;;;4921519;28;20192;-68
2023/10/28 08:29:39;;;;;;;3.53;1.63;;;12.80;99.90;;;;;;4909988;28;20207;-67
2023/10/28 08:32:06;;;;;;;5.67;1.40;;;12.80;99.90;;;;;;4910140;28;20202;-66
2023/10/28 08:34:33;;;;;;;5.83;1.10;;;12.70;99.90;;;;;;4910512;28;20211;-67
2023/10/28 08:36:59;;;;;;;6.73;1.20;;;12.50;99.90;;;;;;4911149;28;20200;-68
2023/10/28 08:39:25;;;;;;;1.80;1.03;;;12.30;99.90;;;;;;4910871;28;20214;-68
2023/10/28 08:41:51;;;;;;;4.07;1.30;;;12.20;99.90;;;;;;4911256;28;20184;-67
2023/10/28 08:44:27;;;;;;;4.70;1.30;;;12.20;99.90;;;;;;4910404;28;20252;-67
2023/10/28 08:46:53;;;;;;;4.93;1.13;;;12.30;99.90;;;;;;4904124;28;20231;-68
2023/10/28 08:49:22;;;;;;;6.77;1.20;;;12.30;99.90;;;;;;4903246;28;20219;-66
2023/10/28 08:51:53;;;;;;;7.90;1.23;;;12.30;99.90;;;;;;4907819;28;20653;-66
2023/10/28 08:54:19;;;;;;;3.47;0.90;;;12.20;99.90;;;;;;4906567;28;20720;-66
2023/10/28 08:56:47;;;;;;;3.20;1.00;;;12.10;99.90;;;;;;4943836;28;20291;-66
2023/10/28 08:59:12;;;;;;;2.93;1.13;;;12.00;99.90;;;;;;4909447;28;20217;-66
2023/10/28 09:01:39;;;;;;;5.30;1.10;;;11.90;99.90;;;;;;4910691;28;20704;-66
2023/10/28 09:04:05;;;;;;;4.73;1.10;;;11.80;99.90;;;;;;4893143;28;20279;-67
2023/10/28 09:06:31;;;;;;;7.37;1.23;;;11.70;99.90;;;;;;4910602;28;20272;-68
2023/10/28 09:08:57;;;;;;;2.60;1.07;;;11.70;99.90;;;;;;4910828;28;20204;-67
2023/10/28 09:11:23;;;;;;;5.67;1.37;;;11.50;99.90;;;;;;4902876;28;20191;-66
2023/10/28 09:13:49;;;;;;;3.67;1.20;;;11.40;99.90;;;;;;4910336;28;20615;-66
2023/10/28 09:16:15;;;;;;;2.70;1.20;;;11.40;99.90;;;;;;4910792;28;20195;-67
2023/10/28 09:18:42;;;;;;;2.93;1.10;;;11.40;99.90;;;;;;4910580;28;20257;-67
2023/10/28 09:21:09;;;;;;;3.80;1.43;;;11.40;99.90;;;;;;4909621;28;20179;-66
2023/10/28 09:23:35;;;;;;;4.83;1.20;;;11.50;99.90;;;;;;4908876;28;20196;-67
2023/10/28 09:26:01;;;;;;;3.83;1.27;;;11.60;99.90;;;;;;4910215;28;20180;-67
2023/10/28 09:28:27;;;;;;;3.33;1.30;;;11.70;99.90;;;;;;4910270;28;20274;-67
2023/10/28 09:30:53;;;;;;;3.70;1.40;;;11.80;99.90;;;;;;4910503;28;20212;-67
2023/10/28 09:33:19;;;;;;;1.60;0.70;;;12.00;99.90;;;;;;4912920;28;20214;-67
2023/10/28 09:35:46;;;;;;;1.27;0.90;;;12.00;99.90;;;;;;4913672;28;20246;-67
2023/10/28 09:38:12;;;;;;;2.87;1.00;;;12.00;99.90;;;;;;4913754;28;20222;-67
2023/10/28 09:40:38;;;;;;;2.00;0.90;;;12.10;99.90;;;;;;4911738;28;20186;-68
2023/10/28 09:43:09;;;;;;;2.43;0.90;;;12.10;99.90;;;;;;4907891;28;20187;-68
2023/10/28 09:45:37;;;;;;;2.40;1.00;;;12.10;99.90;;;;;;4905705;28;20189;-66
2023/10/28 09:48:16;;;;;;;3.20;0.80;;;12.10;99.90;;;;;;4905758;28;20196;-66
2023/10/28 09:50:52;;;;;;;2.60;1.10;;;12.10;99.90;;;;;;4913428;28;20183;-66
2023/10/28 09:53:33;;;;;;;2.83;0.77;;;12.10;99.90;;;;;;4913313;28;20537;-65
2023/10/28 09:56:02;;;;;;;2.60;0.80;;;12.10;99.90;;;;;;4913391;28;20187;-66
2023/10/28 09:58:36;;;;;;;2.00;1.00;;;12.20;99.90;;;;;;4913053;28;20616;-68
2023/10/28 10:01:21;;;;;;;3.50;0.90;;;12.20;99.90;;;;;;4912300;28;20180;-68
2023/10/28 10:04:11;;;;;;;3.33;1.00;;;12.10;99.90;;;;;;4945888;28;20684;-69
2023/10/28 10:06:37;;;;;;;2.50;0.83;;;12.20;99.90;;;;;;4913238;28;20175;-69
2023/10/28 10:09:06;;;;;;;1.70;1.03;;;12.20;99.90;;;;;;4913284;28;20197;-69
2023/10/28 10:11:32;;;;;;;3.13;1.17;;;12.20;99.90;;;;;;4913094;28;20673;-68
2023/10/28 10:14:10;;;;;;;2.13;1.10;;;12.20;99.90;;;;;;4912617;28;20263;-68
2023/10/28 10:16:56;;;;;;;3.73;1.10;;;12.20;99.90;;;;;;4913050;28;20186;-67
2023/10/28 10:19:29;;;;;;;3.00;1.60;;;12.20;99.90;;;;;;4913167;28;20196;-68
2023/10/28 10:21:56;;;;;;;3.57;1.70;;;12.30;99.90;;;;;;4913202;28;20176;-68
2023/10/28 10:24:22;;;;;;;8.80;1.40;;;12.30;99.90;;;;;;4912405;28;20183;-67
2023/10/28 10:26:59;;;;;;;5.53;1.87;;;12.20;99.90;;;;;;4912877;28;20184;-67
2023/10/28 10:29:29;;;;;;;2.77;1.50;;;12.10;99.90;;;;;;4912813;28;20212;-67
2023/10/28 10:31:56;;;;;;;4.27;2.60;;;12.10;99.90;;;;;;4913054;28;20211;-68
2023/10/28 10:34:37;;;;;;;6.30;4.60;;;12.10;99.90;;;;;;4912421;28;20270;-67
2023/10/28 10:37:03;;;;;;;2.50;1.50;;;12.10;99.90;;;;;;4912993;28;20689;-66
2023/10/28 10:39:48;;;;;;;4.53;1.20;;;12.20;99.90;;;;;;4912356;28;20629;-67
2023/10/28 10:42:14;;;;;;;4.53;1.70;;;12.20;99.90;;;;;;4911961;28;20187;-69
2023/10/28 10:44:40;;;;;;;2.80;1.30;;;12.50;99.90;;;;;;4902428;28;20499;-68
2023/10/28 10:47:12;;;;;;;8.30;1.90;;;12.80;99.90;;;;;;4913306;28;20180;-68
2023/10/28 10:49:39;;;;;;;7.93;2.20;;;13.00;99.90;;;;;;4911520;28;20230;-68
2023/10/28 10:52:06;;;;;;;5.53;3.10;;;13.20;99.90;;;;;;4912608;28;20716;-68
2023/10/28 10:54:39;;;;;;;10.57;8.40;;;13.60;99.90;;;;;;4910580;28;20194;-69
2023/10/28 10:57:06;;;;;;;4.07;2.53;;;14.00;99.90;;;;;;4933621;28;20288;-67
2023/10/28 10:59:33;;;;;;;2.23;1.80;;;14.40;99.90;;;;;;4922023;28;20228;-69
2023/10/28 11:02:02;;;;;;;1.80;0.83;;;14.60;99.90;;;;;;4912616;28;20183;-67
2023/10/28 11:04:29;;;;;;;2.73;0.80;;;14.50;99.90;;;;;;4912080;28;20493;-68
2023/10/28 11:06:55;;;;;;;6.77;1.77;;;14.40;99.90;;;;;;4912373;28;20727;-68
2023/10/28 11:09:21;;;;;;;3.17;0.83;;;14.50;99.90;;;;;;4912506;28;20567;-68
2023/10/28 11:11:48;;;;;;;5.20;1.27;;;14.40;99.90;;;;;;4912667;28;20254;-68
2023/10/28 11:14:13;;;;;;;1.83;0.90;;;14.10;99.90;;;;;;4911963;28;20184;-68
2023/10/28 11:16:41;;;;;;;2.20;1.20;;;14.00;99.90;;;;;;4903031;28;20604;-67
2023/10/28 11:19:08;;;;;;;4.70;1.17;;;13.90;99.90;;;;;;4912471;28;20244;-67
2023/10/28 11:21:35;;;;;;;5.13;1.30;;;13.80;99.90;;;;;;4904286;28;20197;-68
2023/10/28 11:24:03;;;;;;;2.20;0.90;;;13.80;99.90;;;;;;4907068;28;20311;-69
2023/10/28 11:26:29;;;;;;;1.30;0.80;;;13.60;99.90;;;;;;4909684;28;20183;-69
2023/10/28 11:28:59;;;;;;;3.37;1.03;;;13.70;99.90;;;;;;4912253;28;20207;-68
2023/10/28 11:31:28;;;;;;;6.63;1.70;;;13.90;99.90;;;;;;4945245;28;20177;-69
2023/10/28 11:33:56;;;;;;;7.77;1.73;;;14.00;99.90;;;;;;4911566;28;20211;-69
2023/10/28 11:36:22;;;;;;;6.37;1.00;;;14.00;99.90;;;;;;4904511;28;20187;-68
2023/10/28 11:38:48;;;;;;;4.87;1.17;;;13.90;99.90;;;;;;4911749;28;20207;-68
2023/10/28 11:41:13;;;;;;;2.73;1.20;;;13.90;99.90;;;;;;4911985;28;20188;-68
2023/10/28 11:43:39;;;;;;;6.90;0.73;;;14.00;99.90;;;;;;4911298;28;20680;-68
2023/10/28 11:46:05;;;;;;;7.93;2.70;;;13.80;99.90;;;;;;4912007;28;20707;-69
2023/10/28 11:48:33;;;;;;;5.83;1.30;;;13.90;99.90;;;;;;4903905;28;20316;-69
2023/10/28 11:51:00;;;;;;;5.10;1.07;;;13.90;99.90;;;;;;4911977;28;20192;-68
2023/10/28 11:53:26;;;;;;;3.53;1.10;;;13.90;99.90;;;;;;4910995;28;20664;-68
2023/10/28 11:55:52;;;;;;;3.90;0.80;;;14.00;99.90;;;;;;4911686;28;20242;-68
2023/10/28 11:58:18;;;;;;;2.50;1.03;;;14.10;99.90;;;;;;4911673;28;20697;-69
2023/10/28 12:00:44;;;;;;;7.60;2.60;;;14.20;99.90;;;;;;4910268;28;20287;-67
2023/10/28 12:03:11;;;;;;;8.47;1.40;;;14.40;99.90;;;;;;4903220;28;20172;-67
2023/10/28 12:05:38;;;;;;;5.33;1.07;;;14.40;99.90;;;;;;4910282;28;20188;-67
2023/10/28 12:08:04;;;;;;;9.33;1.33;;;14.50;99.90;;;;;;4911681;28;20282;-69
2023/10/28 12:10:32;;;;;;;8.60;1.40;;;14.40;99.90;;;;;;4911224;28;20194;-66
2023/10/28 12:12:57;;;;;;;7.83;1.33;;;14.40;99.90;;;;;;4911422;28;20184;-69
2023/10/28 12:15:23;;;;;;;7.27;1.80;;;14.30;99.90;;;;;;4911270;28;20235;-67
2023/10/28 12:17:49;;;;;;;10.90;2.33;;;14.30;99.90;;;;;;4906973;28;20303;-68
2023/10/28 12:20:14;;;;;;;4.30;2.30;;;14.20;99.90;;;;;;4911636;28;20180;-67
2023/10/28 12:22:41;;;;;;;5.87;1.50;;;14.00;99.90;;;;;;4903546;28;20197;-67
2023/10/28 12:25:11;;;;;;;7.40;1.47;;;13.80;99.90;;;;;;4909362;28;20180;-67
2023/10/28 12:27:36;;;;;;;6.20;1.10;;;13.90;99.90;;;;;;4911336;28;20184;-68
2023/10/28 12:30:06;;;;;;;8.77;1.83;;;14.00;99.90;;;;;;4911352;28;20226;-67
2023/10/28 12:32:32;;;;;;;14.80;6.00;;;14.20;99.90;;;;;;4911241;28;20184;-68
2023/10/28 12:34:57;;;;;;;16.37;4.07;;;14.20;99.90;;;;;;4910637;28;20601;-68
2023/10/28 12:37:23;;;;;;;7.33;1.50;;;14.80;99.90;;;;;;4911149;28;20215;-68
2023/10/28 12:39:49;;;;;;;9.90;1.30;;;15.30;99.90;;;;;;4911021;28;20204;-68
2023/10/28 12:42:15;;;;;;;7.80;1.20;;;15.80;99.90;;;;;;4911185;28;20198;-68
2023/10/28 12:44:41;;;;;;;4.67;1.30;;;16.10;99.90;;;;;;4901160;28;20218;-68
2023/10/28 12:47:06;;;;;;;4.93;1.20;;;16.10;99.90;;;;;;4905348;28;20559;-69
2023/10/28 12:49:32;;;;;;;8.83;1.50;;;16.00;99.90;;;;;;4911207;28;20626;-67